FIN957 EFHK-EKCH
Flight info
| Callsign | FIN957 |
|---|---|
| Flight time | 1h 26m |
| Altitude | 36000 |
| Route | NUNTO4N NUNTO Y369 REKDO DCT KOSKA DCT TOKSI N872 ERNOV ERNOV3D |
| Aircraft | A320/M-SDE3FGHIRWY/LB1 |
Departure
| Time | 2026-04-25 11:04 |
|---|---|
| Airport | Helsinki Vantaa Airport (EFHK) |
Arrival
| Time | 2026-04-25 12:30 |
|---|---|
| Airport | Copenhagen Kastrup Airport (EKCH) |
| Time | Latitude | Longitude | Altitude | Speed | Heading |
|---|---|---|---|---|---|
| 2026-04-25 10:33 | 60.31838 | 24.96471 | 167 ft | 0 kts | 137° |
| 2026-04-25 10:54 | 60.31845 | 24.96457 | 166 ft | 4 kts | 138° |
| 2026-04-25 10:55 | 60.31866 | 24.96423 | 166 ft | 4 kts | 148° |
| 2026-04-25 10:55 | 60.31888 | 24.96406 | 167 ft | 4 kts | 198° |
| 2026-04-25 10:55 | 60.31905 | 24.96433 | 167 ft | 4 kts | 227° |
| 2026-04-25 10:55 | 60.31913 | 24.96451 | 167 ft | 0 kts | 227° |
| 2026-04-25 10:57 | 60.31904 | 24.96430 | 167 ft | 4 kts | 227° |
| 2026-04-25 10:57 | 60.31878 | 24.96373 | 167 ft | 7 kts | 229° |
| 2026-04-25 10:58 | 60.31854 | 24.96262 | 166 ft | 10 kts | 264° |
| 2026-04-25 10:58 | 60.31881 | 24.96117 | 167 ft | 13 kts | 314° |
| 2026-04-25 10:58 | 60.31943 | 24.96000 | 169 ft | 8 kts | 317° |
| 2026-04-25 10:58 | 60.31979 | 24.95934 | 172 ft | 7 kts | 317° |
| 2026-04-25 10:59 | 60.31998 | 24.95899 | 173 ft | 0 kts | 317° |
| 2026-04-25 10:59 | 60.31999 | 24.95896 | 173 ft | 1 kts | 317° |
| 2026-04-25 11:00 | 60.32009 | 24.95877 | 173 ft | 3 kts | 317° |
| 2026-04-25 11:00 | 60.32034 | 24.95831 | 174 ft | 6 kts | 317° |
| 2026-04-25 11:00 | 60.32076 | 24.95752 | 174 ft | 11 kts | 317° |
| 2026-04-25 11:00 | 60.32142 | 24.95632 | 172 ft | 14 kts | 318° |
| 2026-04-25 11:01 | 60.32219 | 24.95491 | 174 ft | 15 kts | 316° |
| 2026-04-25 11:01 | 60.32298 | 24.95344 | 176 ft | 16 kts | 317° |
| 2026-04-25 11:01 | 60.32394 | 24.95238 | 178 ft | 16 kts | 340° |
| 2026-04-25 11:01 | 60.32504 | 24.95166 | 180 ft | 17 kts | 342° |
| 2026-04-25 11:02 | 60.32618 | 24.95092 | 180 ft | 18 kts | 342° |
| 2026-04-25 11:02 | 60.32745 | 24.95009 | 178 ft | 19 kts | 342° |
| 2026-04-25 11:02 | 60.32873 | 24.94924 | 174 ft | 19 kts | 337° |
| 2026-04-25 11:02 | 60.32971 | 24.94768 | 178 ft | 17 kts | 317° |
| 2026-04-25 11:03 | 60.33054 | 24.94615 | 184 ft | 14 kts | 317° |
| 2026-04-25 11:03 | 60.33115 | 24.94502 | 195 ft | 9 kts | 314° |
| 2026-04-25 11:03 | 60.33115 | 24.94394 | 190 ft | 8 kts | 238° |
| 2026-04-25 11:03 | 60.33074 | 24.94303 | 194 ft | 11 kts | 227° |
| 2026-04-25 11:04 | 60.32899 | 24.93916 | 184 ft | 73 kts | 227° |
| 2026-04-25 11:04 | 60.32414 | 24.92852 | 173 ft | 131 kts | 228° |
| 2026-04-25 11:04 | 60.31723 | 24.91340 | 429 ft | 153 kts | 229° |
| 2026-04-25 11:04 | 60.31241 | 24.90263 | 922 ft | 154 kts | 230° |
| 2026-04-25 11:05 | 60.30335 | 24.87924 | 1745 ft | 173 kts | 243° |
| 2026-04-25 11:05 | 60.29904 | 24.85514 | 2250 ft | 194 kts | 261° |
| 2026-04-25 11:05 | 60.29912 | 24.82609 | 2682 ft | 222 kts | 282° |
| 2026-04-25 11:05 | 60.30275 | 24.79413 | 3271 ft | 241 kts | 277° |
| 2026-04-25 11:06 | 60.30062 | 24.76052 | 4140 ft | 248 kts | 251° |
| 2026-04-25 11:06 | 60.29419 | 24.72794 | 5032 ft | 251 kts | 249° |
| 2026-04-25 11:06 | 60.28747 | 24.69521 | 5902 ft | 254 kts | 249° |
| 2026-04-25 11:06 | 60.28063 | 24.66223 | 6730 ft | 256 kts | 249° |
| 2026-04-25 11:07 | 60.27373 | 24.62895 | 7557 ft | 259 kts | 249° |
| 2026-04-25 11:07 | 60.26673 | 24.59519 | 8395 ft | 262 kts | 249° |
| 2026-04-25 11:07 | 60.25966 | 24.56106 | 9233 ft | 266 kts | 249° |
| 2026-04-25 11:07 | 60.25254 | 24.52651 | 9993 ft | 268 kts | 249° |
| 2026-04-25 11:08 | 60.24550 | 24.49227 | 10791 ft | 268 kts | 248° |
| 2026-04-25 11:08 | 60.23703 | 24.45822 | 11332 ft | 281 kts | 243° |
| 2026-04-25 11:08 | 60.22741 | 24.42217 | 11555 ft | 302 kts | 243° |
| 2026-04-25 11:08 | 60.21727 | 24.38450 | 12142 ft | 309 kts | 243° |
| 2026-04-25 11:09 | 60.20693 | 24.34627 | 12888 ft | 312 kts | 242° |
| 2026-04-25 11:09 | 60.19652 | 24.30794 | 13603 ft | 313 kts | 242° |
| 2026-04-25 11:09 | 60.18604 | 24.26939 | 14272 ft | 315 kts | 242° |
| 2026-04-25 11:09 | 60.17549 | 24.23055 | 14945 ft | 318 kts | 242° |
| 2026-04-25 11:10 | 60.16488 | 24.19148 | 15596 ft | 320 kts | 242° |
| 2026-04-25 11:10 | 60.15781 | 24.16544 | 16020 ft | 321 kts | 242° |
| 2026-04-25 11:10 | 60.14346 | 24.11248 | 16870 ft | 324 kts | 242° |
| 2026-04-25 11:10 | 60.13261 | 24.07256 | 17515 ft | 327 kts | 242° |
| 2026-04-25 11:11 | 60.12168 | 24.03247 | 18095 ft | 329 kts | 241° |
| 2026-04-25 11:11 | 60.11063 | 23.99210 | 18649 ft | 331 kts | 241° |
| 2026-04-25 11:11 | 60.09948 | 23.95156 | 19218 ft | 333 kts | 241° |
| 2026-04-25 11:11 | 60.08826 | 23.91075 | 19755 ft | 337 kts | 241° |
| 2026-04-25 11:12 | 60.07693 | 23.86926 | 20231 ft | 341 kts | 242° |
| 2026-04-25 11:12 | 60.06579 | 23.82717 | 20734 ft | 343 kts | 242° |
| 2026-04-25 11:12 | 60.05475 | 23.78462 | 21266 ft | 346 kts | 242° |
| 2026-04-25 11:12 | 60.04380 | 23.74227 | 21802 ft | 348 kts | 242° |
| 2026-04-25 11:13 | 60.03260 | 23.69911 | 22349 ft | 351 kts | 242° |
| 2026-04-25 11:13 | 60.02124 | 23.65557 | 22877 ft | 353 kts | 242° |
| 2026-04-25 11:13 | 60.00981 | 23.61201 | 23297 ft | 356 kts | 242° |
| 2026-04-25 11:13 | 59.99822 | 23.56812 | 23694 ft | 358 kts | 242° |
| 2026-04-25 11:14 | 59.98651 | 23.52393 | 24084 ft | 361 kts | 242° |
| 2026-04-25 11:14 | 59.97466 | 23.47940 | 24456 ft | 364 kts | 242° |
| 2026-04-25 11:14 | 59.96275 | 23.43465 | 24822 ft | 367 kts | 242° |
| 2026-04-25 11:14 | 59.95075 | 23.38954 | 25193 ft | 369 kts | 242° |
| 2026-04-25 11:15 | 59.93865 | 23.34410 | 25525 ft | 372 kts | 242° |
| 2026-04-25 11:15 | 59.92643 | 23.29836 | 25869 ft | 375 kts | 243° |
| 2026-04-25 11:15 | 59.91409 | 23.25234 | 26207 ft | 377 kts | 243° |
| 2026-04-25 11:15 | 59.90164 | 23.20610 | 26531 ft | 380 kts | 243° |
| 2026-04-25 11:16 | 59.87646 | 23.11275 | 27176 ft | 385 kts | 243° |
| 2026-04-25 11:16 | 59.86373 | 23.06572 | 27511 ft | 387 kts | 243° |
| 2026-04-25 11:16 | 59.85091 | 23.01836 | 27830 ft | 390 kts | 243° |
| 2026-04-25 11:17 | 59.83799 | 22.97076 | 28155 ft | 392 kts | 243° |
| 2026-04-25 11:17 | 59.82501 | 22.92289 | 28475 ft | 395 kts | 244° |
| 2026-04-25 11:17 | 59.81192 | 22.87479 | 28761 ft | 397 kts | 243° |
| 2026-04-25 11:17 | 59.79870 | 22.82643 | 29054 ft | 399 kts | 243° |
| 2026-04-25 11:18 | 59.78538 | 22.77773 | 29339 ft | 402 kts | 244° |
| 2026-04-25 11:18 | 59.77201 | 22.72896 | 29593 ft | 404 kts | 244° |
| 2026-04-25 11:18 | 59.75856 | 22.67993 | 29803 ft | 406 kts | 244° |
| 2026-04-25 11:18 | 59.74500 | 22.63064 | 30009 ft | 408 kts | 243° |
| 2026-04-25 11:19 | 59.73133 | 22.58120 | 30226 ft | 410 kts | 243° |
| 2026-04-25 11:19 | 59.71774 | 22.53219 | 30439 ft | 412 kts | 243° |
| 2026-04-25 11:19 | 59.70392 | 22.48239 | 30641 ft | 413 kts | 243° |
| 2026-04-25 11:19 | 59.69007 | 22.43253 | 30923 ft | 413 kts | 243° |
| 2026-04-25 11:20 | 59.68069 | 22.39883 | 31107 ft | 413 kts | 243° |
| 2026-04-25 11:20 | 59.66680 | 22.34900 | 31374 ft | 413 kts | 243° |
| 2026-04-25 11:20 | 59.65289 | 22.29928 | 31648 ft | 414 kts | 243° |
| 2026-04-25 11:20 | 59.63895 | 22.24950 | 31909 ft | 414 kts | 243° |
| 2026-04-25 11:21 | 59.62500 | 22.19969 | 32164 ft | 414 kts | 243° |
| 2026-04-25 11:21 | 59.61104 | 22.14991 | 32426 ft | 415 kts | 243° |
| 2026-04-25 11:21 | 59.59702 | 22.10008 | 32686 ft | 415 kts | 243° |
| 2026-04-25 11:21 | 59.58295 | 22.05031 | 32961 ft | 416 kts | 243° |
| 2026-04-25 11:22 | 59.56883 | 22.00050 | 33202 ft | 416 kts | 243° |
| 2026-04-25 11:22 | 59.55468 | 21.95064 | 33469 ft | 417 kts | 243° |
| 2026-04-25 11:22 | 59.54048 | 21.90066 | 33678 ft | 418 kts | 243° |
| 2026-04-25 11:22 | 59.52627 | 21.85073 | 33855 ft | 419 kts | 243° |
| 2026-04-25 11:23 | 59.51200 | 21.80067 | 34050 ft | 419 kts | 243° |
| 2026-04-25 11:23 | 59.49770 | 21.75065 | 34253 ft | 419 kts | 243° |
| 2026-04-25 11:23 | 59.48339 | 21.70073 | 34458 ft | 419 kts | 243° |
| 2026-04-25 11:23 | 59.46923 | 21.65149 | 34639 ft | 419 kts | 243° |
| 2026-04-25 11:24 | 59.45484 | 21.60163 | 34807 ft | 420 kts | 243° |
| 2026-04-25 11:24 | 59.44039 | 21.55168 | 34974 ft | 421 kts | 243° |
| 2026-04-25 11:24 | 59.42596 | 21.50167 | 35138 ft | 421 kts | 243° |
| 2026-04-25 11:24 | 59.41147 | 21.45153 | 35294 ft | 422 kts | 243° |
| 2026-04-25 11:25 | 59.39694 | 21.40150 | 35453 ft | 423 kts | 243° |
| 2026-04-25 11:25 | 59.38235 | 21.35158 | 35500 ft | 421 kts | 243° |
| 2026-04-25 11:25 | 59.35324 | 21.25207 | 35507 ft | 419 kts | 243° |
| 2026-04-25 11:26 | 59.32426 | 21.15293 | 35507 ft | 419 kts | 243° |
| 2026-04-25 11:26 | 59.29525 | 21.05414 | 35507 ft | 417 kts | 243° |
| 2026-04-25 11:27 | 59.26618 | 20.95587 | 35515 ft | 418 kts | 243° |
| 2026-04-25 11:27 | 59.24190 | 20.87413 | 35521 ft | 418 kts | 243° |
| 2026-04-25 11:28 | 59.20769 | 20.75938 | 35522 ft | 418 kts | 243° |
| 2026-04-25 11:28 | 59.17842 | 20.66129 | 35537 ft | 418 kts | 244° |
| 2026-04-25 11:29 | 59.15152 | 20.56103 | 35541 ft | 417 kts | 247° |
| 2026-04-25 11:29 | 59.12622 | 20.45935 | 35517 ft | 417 kts | 247° |
| 2026-04-25 11:30 | 59.10054 | 20.35832 | 35535 ft | 416 kts | 246° |
| 2026-04-25 11:30 | 59.07427 | 20.25798 | 35552 ft | 416 kts | 246° |
| 2026-04-25 11:31 | 59.04778 | 20.15798 | 35556 ft | 416 kts | 246° |
| 2026-04-25 11:31 | 59.02130 | 20.05812 | 35559 ft | 416 kts | 246° |
| 2026-04-25 11:32 | 58.99496 | 19.95885 | 35563 ft | 416 kts | 246° |
| 2026-04-25 11:32 | 58.96840 | 19.85918 | 35564 ft | 416 kts | 246° |
| 2026-04-25 11:33 | 58.94176 | 19.75958 | 35521 ft | 416 kts | 246° |
| 2026-04-25 11:33 | 58.91506 | 19.66023 | 35539 ft | 416 kts | 246° |
| 2026-04-25 11:34 | 58.88823 | 19.56102 | 35559 ft | 416 kts | 246° |
| 2026-04-25 11:34 | 58.86133 | 19.46192 | 35560 ft | 416 kts | 246° |
| 2026-04-25 11:35 | 58.83438 | 19.36288 | 35564 ft | 416 kts | 246° |
| 2026-04-25 11:35 | 58.80739 | 19.26414 | 35571 ft | 416 kts | 246° |
| 2026-04-25 11:36 | 58.78019 | 19.16537 | 35581 ft | 416 kts | 246° |
| 2026-04-25 11:36 | 58.75297 | 19.06694 | 35547 ft | 416 kts | 246° |
| 2026-04-25 11:37 | 58.72579 | 18.96867 | 35567 ft | 415 kts | 246° |
| 2026-04-25 11:37 | 58.69869 | 18.87144 | 35573 ft | 414 kts | 246° |
| 2026-04-25 11:38 | 58.67137 | 18.77398 | 35578 ft | 414 kts | 246° |
| 2026-04-25 11:38 | 58.64408 | 18.67677 | 35580 ft | 413 kts | 246° |
| 2026-04-25 11:39 | 58.61672 | 18.57974 | 35577 ft | 413 kts | 246° |
| 2026-04-25 11:39 | 58.58927 | 18.48283 | 35581 ft | 413 kts | 245° |
| 2026-04-25 11:40 | 58.56175 | 18.38619 | 35542 ft | 413 kts | 245° |
| 2026-04-25 11:40 | 58.53427 | 18.28990 | 35576 ft | 411 kts | 246° |
| 2026-04-25 11:41 | 58.50680 | 18.19410 | 35586 ft | 410 kts | 245° |
| 2026-04-25 11:41 | 58.47927 | 18.09864 | 35586 ft | 409 kts | 245° |
| 2026-04-25 11:42 | 58.45173 | 18.00346 | 35586 ft | 409 kts | 245° |
| 2026-04-25 11:42 | 58.42412 | 17.90854 | 35593 ft | 409 kts | 245° |
| 2026-04-25 11:43 | 58.39652 | 17.81385 | 35589 ft | 408 kts | 245° |
| 2026-04-25 11:43 | 58.36888 | 17.71927 | 35558 ft | 408 kts | 245° |
| 2026-04-25 11:44 | 58.34119 | 17.62514 | 35594 ft | 407 kts | 245° |
| 2026-04-25 11:44 | 58.31354 | 17.53135 | 35598 ft | 406 kts | 245° |
| 2026-04-25 11:45 | 58.28574 | 17.43782 | 35602 ft | 406 kts | 245° |
| 2026-04-25 11:45 | 58.25789 | 17.34435 | 35601 ft | 406 kts | 245° |
| 2026-04-25 11:46 | 58.23003 | 17.25095 | 35605 ft | 407 kts | 245° |
| 2026-04-25 11:46 | 58.20206 | 17.15768 | 35615 ft | 407 kts | 245° |
| 2026-04-25 11:47 | 58.17395 | 17.06462 | 35598 ft | 407 kts | 244° |
| 2026-04-25 11:47 | 58.14589 | 16.97170 | 35591 ft | 406 kts | 245° |
| 2026-04-25 11:48 | 58.11781 | 16.87910 | 35614 ft | 405 kts | 244° |
| 2026-04-25 11:48 | 58.08980 | 16.78740 | 35629 ft | 405 kts | 244° |
| 2026-04-25 11:49 | 58.06159 | 16.69515 | 35622 ft | 405 kts | 244° |
| 2026-04-25 11:49 | 58.03332 | 16.60311 | 35629 ft | 405 kts | 244° |
| 2026-04-25 11:50 | 58.00498 | 16.51124 | 35628 ft | 405 kts | 244° |
| 2026-04-25 11:50 | 57.97659 | 16.41938 | 35627 ft | 405 kts | 244° |
| 2026-04-25 11:51 | 57.94819 | 16.32785 | 35617 ft | 404 kts | 244° |
| 2026-04-25 11:51 | 57.91974 | 16.23674 | 35636 ft | 403 kts | 244° |
| 2026-04-25 11:52 | 57.89132 | 16.14598 | 35646 ft | 402 kts | 244° |
| 2026-04-25 11:52 | 57.86284 | 16.05551 | 35647 ft | 402 kts | 244° |
| 2026-04-25 11:53 | 57.83429 | 15.96513 | 35624 ft | 402 kts | 244° |
| 2026-04-25 11:53 | 57.80565 | 15.87478 | 35620 ft | 404 kts | 244° |
| 2026-04-25 11:54 | 57.77683 | 15.78422 | 35622 ft | 405 kts | 244° |
| 2026-04-25 11:55 | 57.73345 | 15.64857 | 35630 ft | 405 kts | 244° |
| 2026-04-25 11:55 | 57.70437 | 15.55815 | 35635 ft | 406 kts | 244° |
| 2026-04-25 11:56 | 57.67525 | 15.46777 | 35638 ft | 406 kts | 244° |
| 2026-04-25 11:56 | 57.64600 | 15.37755 | 35652 ft | 406 kts | 243° |
| 2026-04-25 11:57 | 57.61669 | 15.28739 | 35652 ft | 406 kts | 243° |
| 2026-04-25 11:57 | 57.58741 | 15.19731 | 35637 ft | 407 kts | 244° |
| 2026-04-25 11:58 | 57.55790 | 15.10703 | 35623 ft | 409 kts | 244° |
| 2026-04-25 11:58 | 57.52806 | 15.01622 | 35658 ft | 412 kts | 244° |
| 2026-04-25 11:59 | 57.49806 | 14.92539 | 35664 ft | 412 kts | 243° |
| 2026-04-25 11:59 | 57.46817 | 14.83525 | 35664 ft | 412 kts | 244° |
| 2026-04-25 12:00 | 57.42305 | 14.69948 | 35681 ft | 412 kts | 243° |
| 2026-04-25 12:01 | 57.37774 | 14.56410 | 35694 ft | 412 kts | 243° |
| 2026-04-25 12:01 | 57.34744 | 14.47419 | 35668 ft | 411 kts | 243° |
| 2026-04-25 12:02 | 57.30714 | 14.35489 | 35688 ft | 411 kts | 243° |
| 2026-04-25 12:02 | 57.27673 | 14.26521 | 35694 ft | 412 kts | 243° |
| 2026-04-25 12:03 | 57.24631 | 14.17554 | 35696 ft | 412 kts | 243° |
| 2026-04-25 12:03 | 57.21576 | 14.08607 | 35700 ft | 412 kts | 243° |
| 2026-04-25 12:04 | 57.18503 | 13.99665 | 35676 ft | 413 kts | 243° |
| 2026-04-25 12:04 | 57.15174 | 13.90976 | 35609 ft | 423 kts | 232° |
| 2026-04-25 12:05 | 57.10527 | 13.84022 | 34767 ft | 437 kts | 225° |
| 2026-04-25 12:05 | 57.08097 | 13.80633 | 34065 ft | 437 kts | 225° |
| 2026-04-25 12:05 | 57.05677 | 13.77283 | 33511 ft | 433 kts | 225° |
| 2026-04-25 12:06 | 57.03285 | 13.73981 | 32980 ft | 426 kts | 225° |
| 2026-04-25 12:06 | 57.00934 | 13.70739 | 32494 ft | 419 kts | 226° |
| 2026-04-25 12:06 | 56.98625 | 13.67554 | 32026 ft | 412 kts | 226° |
| 2026-04-25 12:06 | 56.96358 | 13.64424 | 31570 ft | 404 kts | 227° |
| 2026-04-25 12:07 | 56.94123 | 13.61337 | 30948 ft | 402 kts | 227° |
| 2026-04-25 12:07 | 56.91892 | 13.58244 | 30213 ft | 402 kts | 228° |
| 2026-04-25 12:07 | 56.89674 | 13.55178 | 29484 ft | 397 kts | 228° |
| 2026-04-25 12:07 | 56.87475 | 13.52157 | 28723 ft | 394 kts | 228° |
| 2026-04-25 12:08 | 56.85283 | 13.49143 | 27800 ft | 395 kts | 229° |
| 2026-04-25 12:08 | 56.83084 | 13.46117 | 26817 ft | 398 kts | 229° |
| 2026-04-25 12:08 | 56.80891 | 13.43104 | 25862 ft | 401 kts | 229° |
| 2026-04-25 12:08 | 56.78650 | 13.40037 | 25395 ft | 405 kts | 228° |
| 2026-04-25 12:09 | 56.76386 | 13.36949 | 24926 ft | 408 kts | 228° |
| 2026-04-25 12:09 | 56.74107 | 13.33846 | 24399 ft | 410 kts | 228° |
| 2026-04-25 12:09 | 56.71816 | 13.30727 | 23824 ft | 412 kts | 228° |
| 2026-04-25 12:09 | 56.69541 | 13.27638 | 23292 ft | 404 kts | 229° |
| 2026-04-25 12:10 | 56.67308 | 13.24618 | 22608 ft | 396 kts | 229° |
| 2026-04-25 12:10 | 56.65116 | 13.21648 | 22005 ft | 390 kts | 229° |
| 2026-04-25 12:10 | 56.62959 | 13.18720 | 21414 ft | 385 kts | 228° |
| 2026-04-25 12:10 | 56.60823 | 13.15823 | 20865 ft | 380 kts | 228° |
| 2026-04-25 12:11 | 56.58721 | 13.12971 | 20323 ft | 376 kts | 228° |
| 2026-04-25 12:11 | 56.56630 | 13.10154 | 19815 ft | 372 kts | 227° |
| 2026-04-25 12:11 | 56.54557 | 13.07373 | 19289 ft | 369 kts | 227° |
| 2026-04-25 12:11 | 56.52497 | 13.04612 | 18782 ft | 366 kts | 227° |
| 2026-04-25 12:12 | 56.50455 | 13.01876 | 18276 ft | 364 kts | 227° |
| 2026-04-25 12:12 | 56.49109 | 13.00075 | 17940 ft | 362 kts | 227° |
| 2026-04-25 12:12 | 56.46411 | 12.96468 | 17183 ft | 359 kts | 226° |
| 2026-04-25 12:12 | 56.44200 | 12.94216 | 16620 ft | 375 kts | 210° |
| 2026-04-25 12:13 | 56.41580 | 12.93358 | 16040 ft | 396 kts | 188° |
| 2026-04-25 12:13 | 56.38831 | 12.93742 | 15783 ft | 392 kts | 184° |
| 2026-04-25 12:13 | 56.36151 | 12.94214 | 15526 ft | 383 kts | 184° |
| 2026-04-25 12:13 | 56.33531 | 12.94683 | 15273 ft | 374 kts | 184° |
| 2026-04-25 12:14 | 56.30967 | 12.95135 | 15021 ft | 366 kts | 184° |
| 2026-04-25 12:14 | 56.28457 | 12.95567 | 14771 ft | 359 kts | 184° |
| 2026-04-25 12:14 | 56.25993 | 12.95985 | 14524 ft | 352 kts | 184° |
| 2026-04-25 12:14 | 56.23575 | 12.96386 | 14265 ft | 346 kts | 184° |
| 2026-04-25 12:15 | 56.21197 | 12.96778 | 14025 ft | 340 kts | 184° |
| 2026-04-25 12:15 | 56.18861 | 12.97164 | 13782 ft | 335 kts | 185° |
| 2026-04-25 12:15 | 56.16558 | 12.97543 | 13536 ft | 331 kts | 184° |
| 2026-04-25 12:15 | 56.14271 | 12.97917 | 13220 ft | 328 kts | 184° |
| 2026-04-25 12:16 | 56.11998 | 12.98290 | 12962 ft | 327 kts | 184° |
| 2026-04-25 12:16 | 56.09738 | 12.98666 | 12692 ft | 326 kts | 184° |
| 2026-04-25 12:16 | 56.07488 | 12.99042 | 12423 ft | 324 kts | 184° |
| 2026-04-25 12:16 | 56.05242 | 12.99417 | 12164 ft | 323 kts | 184° |
| 2026-04-25 12:17 | 56.03010 | 12.99794 | 11909 ft | 322 kts | 184° |
| 2026-04-25 12:17 | 56.00785 | 13.00174 | 11650 ft | 320 kts | 184° |
| 2026-04-25 12:17 | 55.98575 | 13.00547 | 11393 ft | 317 kts | 184° |
| 2026-04-25 12:17 | 55.96387 | 13.00907 | 11012 ft | 316 kts | 184° |
| 2026-04-25 12:18 | 55.94200 | 13.01259 | 10625 ft | 316 kts | 184° |
| 2026-04-25 12:18 | 55.92006 | 13.01608 | 10234 ft | 316 kts | 184° |
| 2026-04-25 12:18 | 55.89826 | 13.01958 | 9883 ft | 316 kts | 184° |
| 2026-04-25 12:18 | 55.87646 | 13.02321 | 9553 ft | 313 kts | 184° |
| 2026-04-25 12:19 | 55.84047 | 13.02929 | 8942 ft | 309 kts | 183° |
| 2026-04-25 12:19 | 55.81190 | 13.03402 | 8402 ft | 308 kts | 183° |
| 2026-04-25 12:19 | 55.79063 | 13.03753 | 8012 ft | 306 kts | 183° |
| 2026-04-25 12:20 | 55.76960 | 13.04108 | 7707 ft | 300 kts | 182° |
| 2026-04-25 12:20 | 55.74899 | 13.04463 | 7388 ft | 296 kts | 182° |
| 2026-04-25 12:20 | 55.72857 | 13.04806 | 7015 ft | 294 kts | 182° |
| 2026-04-25 12:20 | 55.70827 | 13.05145 | 6638 ft | 290 kts | 182° |
| 2026-04-25 12:21 | 55.68826 | 13.05472 | 6122 ft | 288 kts | 182° |
| 2026-04-25 12:21 | 55.66842 | 13.05793 | 5544 ft | 285 kts | 181° |
| 2026-04-25 12:21 | 55.64873 | 13.06108 | 4992 ft | 283 kts | 181° |
| 2026-04-25 12:21 | 55.62925 | 13.06415 | 4512 ft | 277 kts | 181° |
| 2026-04-25 12:22 | 55.61074 | 13.06715 | 4380 ft | 258 kts | 182° |
| 2026-04-25 12:22 | 55.59350 | 13.07035 | 4231 ft | 243 kts | 176° |
| 2026-04-25 12:22 | 55.57778 | 13.07930 | 4061 ft | 241 kts | 159° |
| 2026-04-25 12:22 | 55.56378 | 13.09571 | 3771 ft | 244 kts | 141° |
| 2026-04-25 12:23 | 55.55233 | 13.11784 | 3434 ft | 244 kts | 137° |
| 2026-04-25 12:23 | 55.53857 | 13.13312 | 3144 ft | 227 kts | 174° |
| 2026-04-25 12:23 | 55.52371 | 13.13250 | 3010 ft | 206 kts | 212° |
| 2026-04-25 12:23 | 55.51327 | 13.11805 | 2977 ft | 184 kts | 249° |
| 2026-04-25 12:24 | 55.51024 | 13.09720 | 2990 ft | 174 kts | 271° |
| 2026-04-25 12:24 | 55.51010 | 13.07598 | 2980 ft | 173 kts | 275° |
| 2026-04-25 12:24 | 55.51039 | 13.05477 | 2981 ft | 173 kts | 275° |
| 2026-04-25 12:24 | 55.51073 | 13.03361 | 2980 ft | 173 kts | 275° |
| 2026-04-25 12:25 | 55.51108 | 13.01239 | 2979 ft | 173 kts | 275° |
| 2026-04-25 12:25 | 55.51142 | 12.99115 | 2983 ft | 173 kts | 275° |
| 2026-04-25 12:25 | 55.51179 | 12.97002 | 2983 ft | 172 kts | 275° |
| 2026-04-25 12:25 | 55.51222 | 12.94899 | 2982 ft | 171 kts | 278° |
| 2026-04-25 12:26 | 55.51598 | 12.92946 | 2985 ft | 170 kts | 301° |
| 2026-04-25 12:26 | 55.52248 | 12.91208 | 2987 ft | 170 kts | 301° |
| 2026-04-25 12:26 | 55.52904 | 12.89467 | 2957 ft | 171 kts | 301° |
| 2026-04-25 12:26 | 55.53563 | 12.87707 | 2821 ft | 172 kts | 302° |
| 2026-04-25 12:27 | 55.54222 | 12.85946 | 2611 ft | 172 kts | 302° |
| 2026-04-25 12:27 | 55.54879 | 12.84188 | 2414 ft | 172 kts | 301° |
| 2026-04-25 12:27 | 55.55537 | 12.82424 | 2180 ft | 172 kts | 301° |
| 2026-04-25 12:27 | 55.56204 | 12.80635 | 1939 ft | 175 kts | 301° |
| 2026-04-25 12:28 | 55.56867 | 12.78857 | 1706 ft | 172 kts | 301° |
| 2026-04-25 12:28 | 55.57512 | 12.77125 | 1494 ft | 164 kts | 301° |
| 2026-04-25 12:28 | 55.58112 | 12.75513 | 1252 ft | 150 kts | 301° |
| 2026-04-25 12:28 | 55.58659 | 12.74044 | 1043 ft | 136 kts | 301° |
| 2026-04-25 12:29 | 55.59159 | 12.72698 | 865 ft | 128 kts | 300° |
| 2026-04-25 12:29 | 55.59637 | 12.71411 | 689 ft | 125 kts | 301° |
| 2026-04-25 12:29 | 55.60120 | 12.70108 | 511 ft | 127 kts | 301° |
| 2026-04-25 12:29 | 55.60598 | 12.68824 | 339 ft | 125 kts | 301° |
| 2026-04-25 12:30 | 55.61078 | 12.67532 | 166 ft | 124 kts | 300° |
| 2026-04-25 12:30 | 55.61549 | 12.66265 | 36 ft | 121 kts | 299° |
| 2026-04-25 12:30 | 55.61947 | 12.65185 | 25 ft | 84 kts | 303° |
| 2026-04-25 12:30 | 55.62173 | 12.64577 | 24 ft | 35 kts | 303° |
| 2026-04-25 12:31 | 55.62270 | 12.64315 | 22 ft | 17 kts | 304° |
| 2026-04-25 12:31 | 55.62335 | 12.64138 | 22 ft | 18 kts | 303° |
| 2026-04-25 12:31 | 55.62401 | 12.63957 | 21 ft | 17 kts | 303° |
| 2026-04-25 12:31 | 55.62480 | 12.63809 | 22 ft | 15 kts | 330° |
| 2026-04-25 12:32 | 55.62571 | 12.63768 | 24 ft | 12 kts | 359° |
| 2026-04-25 12:32 | 55.62624 | 12.63789 | 24 ft | 6 kts | 22° |
| 2026-04-25 12:32 | 55.62661 | 12.63824 | 26 ft | 7 kts | 32° |
| 2026-04-25 12:32 | 55.62726 | 12.63897 | 25 ft | 15 kts | 33° |
| 2026-04-25 12:33 | 55.62793 | 12.63956 | 24 ft | 9 kts | 5° |
| 2026-04-25 12:33 | 55.62837 | 12.63890 | 24 ft | 8 kts | 290° |
| 2026-04-25 12:33 | 55.62873 | 12.63862 | 24 ft | 7 kts | 7° |
| 2026-04-25 12:33 | 55.62897 | 12.63870 | 24 ft | 1 kts | 11° |
| 2026-04-25 12:34 | 55.62899 | 12.63871 | 24 ft | 0 kts | 11° |